Scroll down
FLIGHT INFORMATION
El Al Israel Airlines

ELY2201

At Arrival Gate

KEWR
 KATL
DATE: 2020-08-31
GATE:  -
GATE DEPARTURE: 00:45
TAKEOFF: 00:54
DATE: 2020-08-31
GATE:  -
LANDING: 02:39
GATE ARRIVAL: 02:45
FLIGHT DATA
Speed: 
507 kts
Altitude: 
38,017 ft
Stage Length: 
647.5 nm
Block Time: 
2 hrs
Flight Time: 
1.8 hrs
Fuel Used: 
41,158 lb
Cleared Route: KEWR LANNA PTW BYRDD HAAGN PENSY EMI CSN MOL FLASK KATL
TRACK DATA
50,000 ft 1,000 kts
AIRCRAFT INFO AND CUMULATIVE STATS
Aircraft Type: 
B744
Registration: 
SELCAL: 
EKCH
MSN/LN: 
26055 / 1027
Operator: 
Total Flights: 
2
Total Block Time: 
2.6 hrs
Total Flight Time: 
2.1 hrs
Total Fuel Time: 
53,830 lb
DATALINK LOG | Newest first | Current as of: 2020-11-29 01:59:28
LABEL SEQUENCE CONTENT Dn/Up
QD452302:45 24.8▼ Dn
QC391702:39▼ Dn
2U5717KATL 310035Z 15008G17KT 3SM TSRA BR BKN020CB OVC030 23/22 A2988 RMK AO2 PK WND 17039/0003 LTG DSNT ALQDS OCNL LTGICCG SE-S TS SE▲ Up
2S5643KATL▼ Dn
QB534000:54▼ Dn
QA453400:45 66▼ Dn
A33130CLEARED TO KATL VIA LANNA J48 FLASK OZZZI1. SQUAWK .▲ Up
2U3136KEWR 302351Z 33010KT 10SM FEW065 SCT250 24/09 A2985 RMK AO2 SLP109 T02390094 10278 20239 53023 $▲ Up
2S3019KEWR▼ Dn
Q05948[LINK ACK]▲ Up
Q05948[LINK TEST]▼ Dn


AIRCRAFT HISTORY
FLIGHT DATE FLIGHT NO. ORIGIN DESTINATION CLEARED ROUTE BLOCK TIME FLIGHT TIME FUEL USED PILOT
2020-08-31ELY2201KEWR KATL KEWR LANNA PTW BYRDD HAAGN PENSY EMI CSN MOL FLASK KATL2 hrs1.8 hrs41,158 lbRoberto Stopnicki
2019-01-07ELY12KJFK KEWR JFK MOVFA DIXIE CASVI RBV05 RBV JERYY METRO SBJ0.7 hrs0.3 hrs12,672 lb-HIDDEN-